Time;durP1;ratioP1;P1;durP2;ratioP2;P2;SDS_P1;SDS_P2;PMS_P1;PMS_P2;Temp;Humidity;BMP_temperature;BMP_pressure;BME280_temperature;BME280_humidity;BME280_pressure;Samples;Min_cycle;Max_cycle;Signal;HPM_P1;HPM_P2
2022/07/09 00:00:05;;;;;;;7.57;3.03;;;17.30;99.90;;;;;;4197896;28;20508;-90
2022/07/09 00:02:06;;;;;;;7.70;2.88;;;17.30;99.90;;;;;;4188898;28;20098;-89
2022/07/09 00:04:06;;;;;;;8.35;3.50;;;17.20;99.90;;;;;;4186464;28;20048;-90
2022/07/09 00:06:08;;;;;;;12.70;3.90;;;17.20;99.90;;;;;;4200016;28;20469;-90
2022/07/09 00:08:09;;;;;;;12.55;4.28;;;17.20;99.90;;;;;;4199106;28;20072;-90
2022/07/09 00:10:11;;;;;;;9.00;3.88;;;17.20;99.90;;;;;;4182007;28;20099;-90
2022/07/09 00:12:12;;;;;;;10.80;4.00;;;17.20;99.90;;;;;;4200264;28;20049;-90
2022/07/09 00:14:16;;;;;;;6.70;3.17;;;17.20;99.90;;;;;;4183319;28;20491;-90
2022/07/09 00:16:18;;;;;;;8.18;3.58;;;17.20;99.90;;;;;;4199918;28;20444;-89
2022/07/09 00:18:20;;;;;;;9.20;3.78;;;17.20;99.90;;;;;;4183353;28;20048;-89
2022/07/09 00:20:22;;;;;;;6.63;3.92;;;17.20;99.90;;;;;;4181400;28;20037;-89
2022/07/09 00:22:23;;;;;;;7.95;3.08;;;17.20;99.90;;;;;;4181738;28;20131;-90
2022/07/09 00:24:28;;;;;;;6.70;3.22;;;17.20;99.90;;;;;;4198586;28;20059;-90
2022/07/09 00:26:29;;;;;;;9.95;3.60;;;17.10;99.90;;;;;;4199556;28;20040;-90
2022/07/09 00:28:31;;;;;;;7.65;3.38;;;17.20;99.90;;;;;;4182307;28;20126;-90
2022/07/09 00:30:40;;;;;;;7.45;3.50;;;17.10;99.90;;;;;;4189518;28;20033;-90
2022/07/09 00:32:41;;;;;;;12.48;3.58;;;17.20;99.90;;;;;;4199818;28;20071;-89
2022/07/09 00:34:41;;;;;;;7.78;3.22;;;17.20;99.90;;;;;;4190202;28;20448;-90
2022/07/09 00:36:42;;;;;;;11.43;3.58;;;17.20;99.90;;;;;;4185531;28;20048;-88
2022/07/09 00:38:43;;;;;;;12.32;4.15;;;17.10;99.90;;;;;;4182231;28;20049;-89
2022/07/09 00:40:44;;;;;;;8.00;3.80;;;17.10;99.90;;;;;;4214965;28;20040;-89
2022/07/09 00:42:45;;;;;;;8.45;3.75;;;17.10;99.90;;;;;;4199951;28;20403;-89
2022/07/09 00:44:46;;;;;;;12.02;4.25;;;17.10;99.90;;;;;;4181818;28;20048;-89
2022/07/09 00:46:48;;;;;;;13.02;3.45;;;17.00;99.90;;;;;;4182196;28;20488;-89
2022/07/09 00:48:49;;;;;;;15.60;4.95;;;17.10;99.90;;;;;;4182398;28;20513;-88
2022/07/09 00:50:50;;;;;;;10.43;3.92;;;17.10;99.90;;;;;;4182739;28;20130;-89
2022/07/09 00:52:58;;;;;;;12.10;4.38;;;17.10;99.90;;;;;;4182270;28;20055;-90
2022/07/09 00:55:02;;;;;;;9.75;4.07;;;17.10;99.90;;;;;;4182618;28;20045;-90
2022/07/09 00:57:06;;;;;;;7.75;3.80;;;17.10;99.90;;;;;;4199271;28;20096;-89
2022/07/09 00:59:13;;;;;;;12.43;3.58;;;17.10;99.90;;;;;;4182282;28;20138;-90
2022/07/09 01:01:13;;;;;;;10.00;3.88;;;17.10;99.90;;;;;;4199392;28;20137;-90
2022/07/09 01:03:15;;;;;;;10.95;4.13;;;17.10;99.90;;;;;;4165945;28;20053;-89
2022/07/09 01:05:16;;;;;;;13.13;4.32;;;17.10;99.90;;;;;;4182878;28;20048;-89
2022/07/09 01:07:18;;;;;;;9.20;3.72;;;17.00;99.90;;;;;;4198802;28;20047;-89
2022/07/09 01:09:21;;;;;;;12.20;4.10;;;17.00;99.90;;;;;;4181816;28;20516;-88
2022/07/09 01:11:22;;;;;;;11.32;3.75;;;17.00;99.90;;;;;;4182126;28;20048;-89
2022/07/09 01:13:26;;;;;;;16.98;4.82;;;16.90;99.90;;;;;;4181972;28;20110;-89
2022/07/09 01:15:27;;;;;;;15.13;4.30;;;16.90;99.90;;;;;;4182914;28;20099;-88
2022/07/09 01:17:38;;;;;;;11.20;4.03;;;16.90;99.90;;;;;;4182831;28;20549;-89
2022/07/09 01:19:39;;;;;;;10.00;3.63;;;17.00;99.90;;;;;;4183825;28;20049;-89
2022/07/09 01:21:42;;;;;;;10.95;3.92;;;16.90;99.90;;;;;;4185145;28;20087;-90
2022/07/09 01:23:52;;;;;;;11.65;3.63;;;16.90;99.90;;;;;;4185380;28;20037;-90
2022/07/09 01:25:55;;;;;;;10.90;5.40;;;16.90;99.90;;;;;;4198287;28;20116;-90
2022/07/09 01:27:57;;;;;;;10.75;4.38;;;16.90;99.90;;;;;;4180301;28;20048;-90
2022/07/09 01:30:00;;;;;;;11.35;3.58;;;16.90;99.90;;;;;;4180370;28;20064;-90
2022/07/09 01:32:01;;;;;;;10.45;4.63;;;16.90;99.90;;;;;;4196609;28;20121;-90
2022/07/09 01:34:01;;;;;;;9.80;4.00;;;16.90;99.90;;;;;;4196912;28;20040;-90
2022/07/09 01:36:02;;;;;;;21.55;5.40;;;16.90;99.90;;;;;;4181512;28;20508;-90
2022/07/09 01:38:05;;;;;;;9.38;4.07;;;16.90;99.90;;;;;;4197772;28;20055;-88
2022/07/09 01:40:07;;;;;;;13.48;4.93;;;16.90;99.90;;;;;;4183067;28;20579;-89
2022/07/09 01:42:08;;;;;;;6.63;3.33;;;16.90;99.90;;;;;;4217801;28;20040;-89
2022/07/09 01:44:10;;;;;;;9.48;3.70;;;16.90;99.90;;;;;;4201241;28;20114;-89
2022/07/09 01:46:12;;;;;;;10.07;3.90;;;16.90;99.90;;;;;;4169018;28;20057;-89
2022/07/09 01:48:13;;;;;;;10.15;3.90;;;16.90;99.90;;;;;;4202247;28;20134;-89
2022/07/09 01:50:15;;;;;;;15.32;4.20;;;16.90;99.90;;;;;;4185581;28;20049;-89
2022/07/09 01:52:17;;;;;;;9.23;3.88;;;16.90;99.90;;;;;;4173707;28;20045;-89
2022/07/09 01:54:18;;;;;;;9.02;3.47;;;16.90;99.90;;;;;;4174743;28;20049;-90
2022/07/09 01:56:19;;;;;;;8.52;3.78;;;16.90;99.90;;;;;;4185494;28;20471;-89
2022/07/09 01:58:19;;;;;;;9.38;3.78;;;16.90;99.90;;;;;;4194035;28;20045;-89
2022/07/09 02:00:20;;;;;;;7.45;3.75;;;16.90;99.90;;;;;;4185947;28;20051;-88
2022/07/09 02:02:22;;;;;;;10.82;4.20;;;16.80;99.90;;;;;;4202864;28;20045;-90
2022/07/09 02:04:24;;;;;;;11.10;3.40;;;16.90;99.90;;;;;;4185109;28;20087;-90
2022/07/09 02:06:26;;;;;;;7.13;3.40;;;16.80;99.90;;;;;;4205087;28;20087;-89
2022/07/09 02:08:26;;;;;;;8.88;4.07;;;16.80;99.90;;;;;;4188201;28;20076;-89
2022/07/09 02:10:28;;;;;;;15.23;4.03;;;16.80;99.90;;;;;;4189118;28;20049;-89
2022/07/09 02:12:29;;;;;;;10.25;4.55;;;16.80;99.90;;;;;;4205929;28;20068;-89
2022/07/09 02:14:33;;;;;;;13.73;4.15;;;16.80;99.90;;;;;;4206443;28;20052;-89
2022/07/09 02:16:34;;;;;;;14.60;4.53;;;16.80;99.90;;;;;;4189023;28;20049;-89
2022/07/09 02:18:35;;;;;;;11.98;4.53;;;16.80;99.90;;;;;;4206067;28;20045;-89
2022/07/09 02:20:36;;;;;;;11.15;4.47;;;16.80;99.90;;;;;;4206087;28;20047;-88
2022/07/09 02:22:38;;;;;;;15.65;3.97;;;16.40;99.90;;;;;;4188919;28;20076;-89
2022/07/09 02:24:39;;;;;;;8.35;4.63;;;16.70;99.90;;;;;;4208880;28;20048;-89
2022/07/09 02:26:40;;;;;;;12.02;4.25;;;16.70;99.90;;;;;;4193304;28;20059;-89
2022/07/09 02:28:41;;;;;;;11.07;4.57;;;16.70;99.90;;;;;;4243663;28;20051;-88
2022/07/09 02:30:42;;;;;;;9.45;4.05;;;16.70;99.90;;;;;;4192261;28;20048;-90
2022/07/09 02:32:43;;;;;;;11.10;4.03;;;16.70;99.90;;;;;;4202975;28;20056;-90
2022/07/09 02:34:45;;;;;;;10.18;3.38;;;16.50;99.90;;;;;;4200230;28;20052;-90
2022/07/09 02:36:45;;;;;;;11.93;3.63;;;16.70;99.90;;;;;;4190351;28;20509;-90
2022/07/09 02:38:46;;;;;;;7.85;3.33;;;16.70;99.90;;;;;;4184294;28;20052;-89
2022/07/09 02:40:48;;;;;;;12.43;4.10;;;16.70;99.90;;;;;;4203757;28;20148;-90
2022/07/09 02:42:48;;;;;;;7.10;3.22;;;16.70;99.90;;;;;;4190021;28;20041;-89
2022/07/09 02:44:49;;;;;;;9.05;3.90;;;16.70;99.90;;;;;;4184025;28;20404;-90
2022/07/09 02:46:50;;;;;;;11.60;3.60;;;16.70;99.90;;;;;;4184241;28;20053;-90
2022/07/09 02:48:51;;;;;;;11.43;3.53;;;16.70;99.90;;;;;;4184023;28;20064;-90
2022/07/09 02:50:52;;;;;;;9.70;3.58;;;16.70;99.90;;;;;;4201118;28;20079;-88
2022/07/09 02:52:53;;;;;;;9.85;3.63;;;16.70;99.90;;;;;;4183515;28;20422;-90
2022/07/09 02:54:53;;;;;;;8.48;3.65;;;16.70;99.90;;;;;;4185535;28;20051;-90
2022/07/09 02:56:54;;;;;;;10.77;3.25;;;16.70;99.90;;;;;;4183961;28;20045;-89
2022/07/09 02:58:57;;;;;;;9.20;3.22;;;16.60;99.90;;;;;;4168366;28;20048;-90
2022/07/09 03:00:59;;;;;;;14.20;3.65;;;16.60;99.90;;;;;;4184665;28;20072;-90
2022/07/09 03:03:00;;;;;;;16.85;4.30;;;16.60;99.90;;;;;;4180704;28;20051;-90
2022/07/09 03:05:02;;;;;;;7.47;3.45;;;16.60;99.90;;;;;;4201276;28;20619;-90
2022/07/09 03:07:03;;;;;;;7.85;3.40;;;16.60;99.90;;;;;;4184018;28;20370;-90
2022/07/09 03:09:04;;;;;;;11.50;3.05;;;16.40;99.90;;;;;;4217313;28;20148;-90
2022/07/09 03:11:09;;;;;;;10.65;2.95;;;16.60;99.90;;;;;;4183065;28;20056;-90
2022/07/09 03:13:09;;;;;;;8.55;3.03;;;16.60;99.90;;;;;;4201820;28;20055;-90
2022/07/09 03:15:13;;;;;;;6.15;2.75;;;16.50;99.90;;;;;;4190542;28;20041;-91
2022/07/09 03:17:13;;;;;;;12.15;3.28;;;16.50;99.90;;;;;;4197159;28;20045;-90
2022/07/09 03:19:14;;;;;;;6.10;3.15;;;16.50;99.90;;;;;;4185342;28;20571;-90
2022/07/09 03:21:15;;;;;;;13.07;3.60;;;16.50;99.90;;;;;;4183686;28;20143;-89
2022/07/09 03:23:17;;;;;;;5.80;3.00;;;16.50;99.90;;;;;;4183044;28;20041;-89
2022/07/09 03:25:18;;;;;;;7.55;2.83;;;16.50;99.90;;;;;;4182731;28;20163;-90
2022/07/09 03:27:19;;;;;;;7.80;2.75;;;16.50;99.90;;;;;;4181841;28;20053;-89
2022/07/09 03:29:20;;;;;;;11.70;2.97;;;16.50;99.90;;;;;;4186045;28;20057;-91
2022/07/09 03:31:21;;;;;;;14.07;3.28;;;16.50;99.90;;;;;;4184614;28;20529;-90
2022/07/09 03:33:25;;;;;;;8.13;3.47;;;16.50;99.90;;;;;;4184782;28;20156;-90
2022/07/09 03:35:27;;;;;;;9.07;2.90;;;16.50;99.90;;;;;;4184493;28;20048;-89
2022/07/09 03:37:27;;;;;;;7.78;3.13;;;16.50;99.90;;;;;;4202270;28;20501;-90
2022/07/09 03:39:28;;;;;;;9.30;3.08;;;16.50;99.90;;;;;;4186120;28;20072;-90
2022/07/09 03:41:30;;;;;;;9.57;2.97;;;16.40;99.90;;;;;;4201945;28;20049;-90
2022/07/09 03:43:33;;;;;;;8.70;2.85;;;16.40;99.90;;;;;;4199222;28;20099;-90
2022/07/09 03:45:33;;;;;;;7.32;2.55;;;16.40;99.90;;;;;;4190161;28;20056;-89
2022/07/09 03:47:34;;;;;;;8.23;3.40;;;16.40;99.90;;;;;;4182583;28;20128;-90
2022/07/09 03:49:36;;;;;;;10.38;3.10;;;16.40;99.90;;;;;;4182367;28;20128;-88
2022/07/09 03:51:37;;;;;;;11.00;3.63;;;16.40;99.90;;;;;;4182338;28;20079;-90
2022/07/09 03:53:38;;;;;;;10.50;3.00;;;16.40;99.90;;;;;;4193589;28;20102;-90
2022/07/09 03:55:38;;;;;;;10.35;3.13;;;16.40;99.90;;;;;;4198404;28;20044;-89
2022/07/09 03:57:42;;;;;;;11.38;3.13;;;16.40;99.90;;;;;;4198859;28;20111;-89
2022/07/09 03:59:44;;;;;;;8.50;2.72;;;16.40;99.90;;;;;;4166126;28;20107;-89
2022/07/09 04:01:45;;;;;;;10.98;3.30;;;16.60;99.90;;;;;;4221986;28;20097;-89
2022/07/09 04:03:46;;;;;;;11.98;3.15;;;16.40;99.90;;;;;;4166272;28;20064;-88
2022/07/09 04:05:47;;;;;;;11.50;3.65;;;16.40;99.90;;;;;;4163529;28;20050;-89
2022/07/09 04:07:49;;;;;;;9.77;2.95;;;16.40;99.90;;;;;;4180528;28;20084;-88
2022/07/09 04:09:50;;;;;;;8.18;2.70;;;16.40;99.90;;;;;;4181492;28;20585;-89
2022/07/09 04:11:51;;;;;;;9.82;3.28;;;16.40;99.90;;;;;;4194048;28;20413;-88
2022/07/09 04:13:52;;;;;;;9.63;3.45;;;16.40;99.90;;;;;;4180327;28;20056;-89
2022/07/09 04:15:53;;;;;;;9.52;3.20;;;16.40;99.90;;;;;;4180417;28;20607;-88
2022/07/09 04:17:53;;;;;;;8.10;2.60;;;16.40;99.90;;;;;;4197141;28;20040;-89
2022/07/09 04:19:55;;;;;;;8.18;2.97;;;16.40;99.90;;;;;;4197479;28;20167;-89
2022/07/09 04:21:56;;;;;;;9.25;3.25;;;16.40;99.90;;;;;;4179877;28;20052;-88
2022/07/09 04:23:57;;;;;;;5.97;2.90;;;16.50;99.90;;;;;;4180696;28;20056;-90
2022/07/09 04:25:58;;;;;;;6.70;2.67;;;16.50;99.90;;;;;;4180678;28;20489;-90
2022/07/09 04:27:59;;;;;;;9.77;3.05;;;16.50;99.90;;;;;;4198018;28;20036;-89
2022/07/09 04:30:00;;;;;;;8.57;3.15;;;16.40;99.90;;;;;;4198735;28;20508;-89
2022/07/09 04:32:02;;;;;;;7.15;2.80;;;16.40;99.90;;;;;;4182293;28;20128;-90
2022/07/09 04:34:03;;;;;;;8.68;3.20;;;16.60;99.90;;;;;;4181656;28;20082;-89
2022/07/09 04:36:05;;;;;;;11.43;3.95;;;16.60;99.90;;;;;;4201469;28;20041;-89
2022/07/09 04:38:06;;;;;;;11.13;4.22;;;16.60;99.90;;;;;;4181658;28;20517;-89
2022/07/09 04:40:07;;;;;;;7.57;2.95;;;16.70;99.90;;;;;;4197045;28;20048;-90
2022/07/09 04:42:12;;;;;;;10.27;3.22;;;16.70;99.90;;;;;;4196743;28;20127;-90
2022/07/09 04:44:15;;;;;;;10.43;3.75;;;16.70;99.90;;;;;;4180553;28;20040;-89
2022/07/09 04:46:16;;;;;;;8.45;2.72;;;16.70;99.90;;;;;;4213287;28;20104;-89
2022/07/09 04:48:17;;;;;;;6.30;2.70;;;16.70;99.90;;;;;;4195954;28;20061;-90
2022/07/09 04:50:18;;;;;;;8.52;2.67;;;16.70;99.90;;;;;;4180335;28;20075;-90
2022/07/09 04:52:19;;;;;;;7.93;2.92;;;16.70;99.90;;;;;;4180308;28;20442;-90
2022/07/09 04:54:21;;;;;;;8.18;3.05;;;16.70;99.90;;;;;;4185676;28;20045;-89
2022/07/09 04:56:21;;;;;;;8.40;3.30;;;16.70;99.90;;;;;;4180302;28;20464;-90
2022/07/09 04:58:23;;;;;;;7.38;2.65;;;16.80;99.90;;;;;;4197464;28;20041;-89
2022/07/09 05:00:24;;;;;;;9.07;2.58;;;16.80;99.90;;;;;;4164236;28;20068;-90
2022/07/09 05:02:25;;;;;;;8.98;2.53;;;16.80;99.90;;;;;;4179331;28;20049;-90
2022/07/09 05:04:27;;;;;;;9.48;3.65;;;16.90;99.90;;;;;;4180484;28;20545;-90
2022/07/09 05:06:27;;;;;;;9.38;3.60;;;16.90;99.90;;;;;;4164228;28;20136;-88
2022/07/09 05:08:28;;;;;;;5.78;2.50;;;16.90;99.90;;;;;;4180584;28;20040;-89
2022/07/09 05:10:29;;;;;;;10.93;2.63;;;16.90;99.90;;;;;;4197482;28;20041;-90
2022/07/09 05:12:31;;;;;;;5.80;2.65;;;17.00;99.90;;;;;;4196969;28;20056;-90
2022/07/09 05:14:31;;;;;;;11.30;3.53;;;17.00;99.90;;;;;;4183013;28;20118;-90
2022/07/09 05:16:32;;;;;;;7.78;2.75;;;17.00;99.90;;;;;;4200535;28;20080;-90
2022/07/09 05:18:34;;;;;;;5.28;2.80;;;17.00;99.90;;;;;;4183155;28;20041;-90
2022/07/09 05:20:36;;;;;;;8.23;2.90;;;17.00;99.90;;;;;;4185419;28;20075;-90
2022/07/09 05:22:37;;;;;;;14.10;3.05;;;17.10;99.90;;;;;;4183969;28;20048;-90
2022/07/09 05:24:38;;;;;;;7.43;2.67;;;17.10;99.90;;;;;;4183931;28;20408;-91
2022/07/09 05:26:39;;;;;;;10.05;2.80;;;17.10;99.90;;;;;;4183834;28;20049;-90
2022/07/09 05:28:41;;;;;;;9.07;2.95;;;17.20;99.90;;;;;;4183044;28;20099;-90
2022/07/09 05:30:41;;;;;;;8.25;2.58;;;17.20;99.90;;;;;;4200369;28;20082;-90
2022/07/09 05:32:43;;;;;;;4.97;2.50;;;17.20;99.90;;;;;;4179597;28;20049;-91
2022/07/09 05:34:45;;;;;;;10.43;2.85;;;17.20;99.90;;;;;;4182520;28;20128;-90
2022/07/09 05:36:46;;;;;;;11.77;3.00;;;17.20;99.90;;;;;;4183210;28;20080;-90
2022/07/09 05:38:47;;;;;;;10.60;2.53;;;17.20;99.90;;;;;;4182733;28;20053;-90
2022/07/09 05:40:48;;;;;;;7.65;2.90;;;17.20;99.90;;;;;;4196722;28;20051;-90
2022/07/09 05:42:49;;;;;;;6.78;2.83;;;17.20;99.90;;;;;;4182449;28;20045;-90
2022/07/09 05:44:49;;;;;;;6.97;2.70;;;17.20;99.90;;;;;;4183393;28;20044;-90
2022/07/09 05:46:51;;;;;;;10.52;3.13;;;17.30;99.90;;;;;;4188193;28;20517;-93
2022/07/09 05:48:52;;;;;;;7.65;2.83;;;17.30;99.90;;;;;;4203488;28;20052;-92
2022/07/09 05:50:54;;;;;;;6.20;2.75;;;17.30;99.90;;;;;;4181992;28;20160;-92
2022/07/09 05:52:55;;;;;;;7.25;2.55;;;17.30;99.90;;;;;;4205140;28;20042;-92
2022/07/09 05:54:57;;;;;;;6.43;2.70;;;17.30;99.90;;;;;;4173053;28;20494;-92
2022/07/09 05:56:58;;;;;;;6.07;2.53;;;17.30;99.90;;;;;;4221521;28;20044;-91
2022/07/09 05:58:59;;;;;;;6.93;2.70;;;17.30;99.90;;;;;;4185930;28;20044;-92
2022/07/09 06:01:01;;;;;;;8.10;2.78;;;17.30;99.90;;;;;;4199617;28;20060;-92
2022/07/09 06:03:02;;;;;;;7.90;2.50;;;17.40;99.90;;;;;;4205851;28;20104;-92
2022/07/09 06:05:03;;;;;;;6.63;2.50;;;17.20;99.90;;;;;;4186966;28;20512;-91
2022/07/09 06:07:05;;;;;;;8.70;2.30;;;17.40;99.90;;;;;;4185420;28;20045;-92
2022/07/09 06:09:07;;;;;;;5.18;2.08;;;17.50;99.90;;;;;;4185529;28;20041;-92
2022/07/09 06:11:07;;;;;;;4.85;2.60;;;17.50;99.90;;;;;;4182648;28;20132;-92
2022/07/09 06:13:09;;;;;;;6.82;2.58;;;17.50;99.90;;;;;;4183286;28;20536;-92
2022/07/09 06:15:11;;;;;;;6.80;2.10;;;17.40;99.90;;;;;;4199926;28;20048;-92
2022/07/09 06:17:12;;;;;;;6.82;2.00;;;17.60;99.90;;;;;;4183882;28;20404;-92
2022/07/09 06:19:14;;;;;;;4.25;2.00;;;17.60;99.90;;;;;;4183406;28;20053;-92
2022/07/09 06:21:15;;;;;;;13.18;2.20;;;17.60;99.90;;;;;;4185667;28;20032;-91
2022/07/09 06:23:21;;;;;;;8.57;2.70;;;17.60;99.90;;;;;;4209667;28;20494;-92
2022/07/09 06:25:23;;;;;;;7.55;2.28;;;17.60;99.90;;;;;;4182818;28;20467;-92
2022/07/09 06:27:25;;;;;;;11.60;2.22;;;17.60;99.90;;;;;;4186016;28;20540;-93
2022/07/09 06:29:26;;;;;;;4.25;2.42;;;17.70;99.90;;;;;;4185258;28;20041;-93
2022/07/09 06:31:27;;;;;;;5.97;2.53;;;17.70;99.90;;;;;;4185959;28;20041;-92
2022/07/09 06:33:28;;;;;;;10.07;2.80;;;17.70;99.90;;;;;;4194873;28;20044;-93
2022/07/09 06:35:30;;;;;;;2.72;1.70;;;17.80;99.90;;;;;;4191646;28;20048;-93
2022/07/09 06:37:31;;;;;;;11.90;2.05;;;17.80;99.90;;;;;;4186621;28;20113;-92
2022/07/09 06:39:48;;;;;;;7.15;2.45;;;17.90;99.90;;;;;;4212849;28;20110;-93
2022/07/09 06:41:52;;;;;;;6.18;1.88;;;17.90;99.90;;;;;;4188311;28;20041;-93
2022/07/09 06:43:53;;;;;;;6.35;2.13;;;17.90;99.90;;;;;;4189067;28;20049;-92
2022/07/09 06:45:54;;;;;;;7.90;2.05;;;17.90;99.90;;;;;;4187158;28;20059;-93
2022/07/09 06:47:58;;;;;;;4.25;1.60;;;18.00;99.90;;;;;;4210721;28;20037;-93
2022/07/09 06:50:02;;;;;;;8.43;2.08;;;18.00;99.90;;;;;;4221722;28;20075;-92
2022/07/09 06:52:03;;;;;;;7.15;1.83;;;18.00;99.90;;;;;;4187391;28;20564;-92
2022/07/09 06:54:04;;;;;;;4.88;1.88;;;18.00;99.90;;;;;;4185265;28;20123;-93
2022/07/09 06:56:08;;;;;;;8.57;2.15;;;18.00;99.90;;;;;;4184761;28;20056;-93
2022/07/09 06:58:10;;;;;;;8.30;2.47;;;18.00;99.90;;;;;;4176412;28;20049;-93
2022/07/09 07:00:13;;;;;;;3.05;1.70;;;18.00;99.90;;;;;;4177423;28;20045;-92
2022/07/09 07:02:18;;;;;;;8.23;1.90;;;18.10;99.90;;;;;;4183127;28;20045;-92
2022/07/09 07:04:20;;;;;;;7.55;1.80;;;18.10;99.90;;;;;;4200511;28;20142;-93
2022/07/09 07:06:20;;;;;;;3.63;1.73;;;18.20;99.90;;;;;;4183872;28;20045;-90
2022/07/09 07:08:21;;;;;;;5.57;1.30;;;18.20;99.90;;;;;;4220105;28;20510;-90
2022/07/09 07:10:23;;;;;;;8.82;1.52;;;18.20;99.90;;;;;;4189424;28;20048;-91
2022/07/09 07:12:24;;;;;;;3.42;1.48;;;18.30;99.90;;;;;;4200297;28;20064;-91
2022/07/09 07:14:25;;;;;;;9.30;1.63;;;18.30;99.90;;;;;;4199355;28;20639;-89
2022/07/09 07:16:26;;;;;;;5.15;1.73;;;18.40;99.90;;;;;;4182241;28;20041;-90
2022/07/09 07:18:26;;;;;;;12.77;2.38;;;18.50;99.90;;;;;;4198755;28;20040;-90
2022/07/09 07:20:27;;;;;;;6.88;1.42;;;18.60;99.90;;;;;;4199468;28;20040;-89
2022/07/09 07:22:28;;;;;;;9.15;1.88;;;18.70;99.90;;;;;;4182167;28;20516;-90
2022/07/09 07:24:31;;;;;;;6.82;1.27;;;18.80;99.90;;;;;;4198949;28;20102;-89
2022/07/09 07:26:33;;;;;;;4.95;1.48;;;18.60;99.90;;;;;;4182069;28;20087;-90
2022/07/09 07:28:34;;;;;;;4.07;1.50;;;18.80;99.90;;;;;;4198669;28;20044;-89
2022/07/09 07:30:36;;;;;;;4.43;1.50;;;18.90;99.90;;;;;;4199551;28;20591;-89
2022/07/09 07:32:37;;;;;;;7.15;1.50;;;18.90;99.90;;;;;;4186910;28;20455;-90
2022/07/09 07:34:39;;;;;;;5.80;1.15;;;18.90;99.90;;;;;;4187378;28;20044;-92
2022/07/09 07:38:50;;;;;;;6.93;1.35;;;19.00;99.90;;;;;;4486930;22;20070;-82
2022/07/09 07:40:52;;;;;;;5.28;1.27;;;19.00;99.90;;;;;;4164518;28;20048;-83
2022/07/09 07:42:53;;;;;;;5.03;0.98;;;19.10;99.90;;;;;;4132708;28;20054;-83
2022/07/09 07:44:53;;;;;;;4.78;1.25;;;19.20;99.90;;;;;;4136130;28;20050;-83
2022/07/09 07:46:54;;;;;;;7.72;1.17;;;19.30;99.90;;;;;;4148894;28;20493;-84
2022/07/09 07:48:55;;;;;;;6.22;1.33;;;19.40;99.90;;;;;;4133475;28;20069;-84
2022/07/09 07:50:56;;;;;;;7.70;1.40;;;19.50;99.90;;;;;;4147500;28;20088;-84
2022/07/09 07:52:57;;;;;;;4.43;1.10;;;19.60;99.90;;;;;;4114633;28;20546;-84
2022/07/09 07:54:58;;;;;;;4.53;1.20;;;19.60;99.90;;;;;;4132845;28;20125;-84
2022/07/09 07:56:59;;;;;;;5.55;0.80;;;19.70;99.90;;;;;;4147761;28;20046;-84
2022/07/09 07:59:01;;;;;;;8.05;2.13;;;19.70;99.90;;;;;;4115916;28;20455;-86
2022/07/09 08:01:02;;;;;;;3.47;0.90;;;19.70;99.90;;;;;;4132130;28;20073;-86
2022/07/09 08:03:04;;;;;;;4.22;1.23;;;19.80;99.90;;;;;;4136344;28;20121;-85
2022/07/09 08:05:06;;;;;;;3.10;1.13;;;19.90;99.90;;;;;;4135369;28;20046;-85
2022/07/09 08:07:07;;;;;;;7.25;1.85;;;20.10;99.90;;;;;;4151316;28;20056;-86
2022/07/09 08:09:07;;;;;;;7.20;1.10;;;20.10;99.90;;;;;;4130233;28;20054;-86
2022/07/09 08:11:08;;;;;;;4.30;1.20;;;20.10;99.90;;;;;;4144394;28;20045;-86
2022/07/09 08:13:11;;;;;;;5.28;1.02;;;20.20;99.90;;;;;;4145856;28;20105;-85
2022/07/09 08:15:12;;;;;;;2.42;1.23;;;20.30;99.90;;;;;;4132330;28;20043;-85
2022/07/09 08:17:13;;;;;;;4.05;1.05;;;20.40;99.90;;;;;;4133164;28;20388;-85
2022/07/09 08:19:15;;;;;;;5.72;1.00;;;20.60;99.90;;;;;;4138699;28;20042;-85
2022/07/09 08:21:16;;;;;;;6.80;1.45;;;20.70;99.90;;;;;;4137110;28;20117;-85
2022/07/09 08:23:17;;;;;;;4.38;1.38;;;20.90;99.90;;;;;;4115146;28;20050;-86
2022/07/09 08:25:17;;;;;;;3.95;0.90;;;21.10;99.90;;;;;;4115186;28;20082;-85
2022/07/09 08:27:18;;;;;;;4.38;1.15;;;21.20;99.90;;;;;;4144453;28;20462;-85
2022/07/09 08:29:19;;;;;;;6.57;1.38;;;21.30;99.90;;;;;;4134460;28;20069;-85
2022/07/09 08:31:21;;;;;;;3.30;1.02;;;21.10;99.90;;;;;;4134000;28;20376;-85
2022/07/09 08:33:21;;;;;;;6.15;1.25;;;21.20;99.90;;;;;;4100339;28;20126;-86
2022/07/09 08:35:22;;;;;;;7.35;1.35;;;21.10;99.90;;;;;;4132773;28;20418;-85
2022/07/09 08:37:23;;;;;;;3.50;1.15;;;21.10;99.90;;;;;;4115522;28;20058;-85
2022/07/09 08:39:24;;;;;;;3.90;1.13;;;21.10;99.90;;;;;;4147263;28;20057;-85
2022/07/09 08:41:25;;;;;;;5.72;1.20;;;21.00;99.90;;;;;;4115257;28;20061;-85
2022/07/09 08:43:29;;;;;;;11.38;2.25;;;20.90;99.90;;;;;;4149623;28;20058;-85
2022/07/09 08:45:31;;;;;;;3.85;1.38;;;20.80;99.90;;;;;;4129633;28;20049;-86
2022/07/09 08:47:32;;;;;;;8.40;1.60;;;20.70;99.90;;;;;;4139065;28;20116;-85
2022/07/09 08:49:33;;;;;;;7.60;1.55;;;20.70;99.90;;;;;;4132380;28;20035;-85
2022/07/09 08:51:36;;;;;;;7.68;2.35;;;20.70;99.90;;;;;;4115152;28;20055;-84
2022/07/09 08:53:41;;;;;;;4.28;1.13;;;20.90;99.90;;;;;;4131838;28;20121;-86
2022/07/09 08:55:42;;;;;;;6.05;1.23;;;21.10;99.90;;;;;;4115493;28;20185;-86
2022/07/09 08:57:42;;;;;;;6.88;1.23;;;21.10;99.90;;;;;;4132546;28;20042;-85
2022/07/09 08:59:43;;;;;;;2.90;0.90;;;21.10;99.90;;;;;;4132956;28;20057;-85
2022/07/09 09:01:44;;;;;;;7.55;2.47;;;21.00;99.90;;;;;;4132738;28;20531;-86
2022/07/09 09:03:47;;;;;;;6.68;1.10;;;20.90;99.90;;;;;;4132979;28;20061;-86
2022/07/09 09:06:08;;;;;;;3.15;1.08;;;20.90;99.90;;;;;;4133638;28;20045;-86
2022/07/09 09:08:21;;;;;;;5.97;1.17;;;20.70;99.90;;;;;;4116235;28;20046;-86
2022/07/09 09:10:24;;;;;;;4.72;1.10;;;20.90;99.90;;;;;;4149259;28;20041;-86
2022/07/09 09:12:29;;;;;;;6.57;1.05;;;20.90;99.90;;;;;;4116423;28;20438;-85
2022/07/09 09:14:30;;;;;;;6.22;1.30;;;20.90;99.90;;;;;;4116057;28;20078;-85
2022/07/09 09:16:31;;;;;;;5.05;1.00;;;21.10;99.90;;;;;;4133227;28;20042;-85
2022/07/09 09:18:33;;;;;;;5.38;1.10;;;21.30;99.90;;;;;;4133072;28;20065;-85
2022/07/09 09:20:34;;;;;;;4.20;0.82;;;21.40;99.90;;;;;;4115898;28;20435;-85
2022/07/09 09:22:43;;;;;;;4.25;1.55;;;21.60;99.90;;;;;;4133911;28;20474;-85
2022/07/09 09:24:48;;;;;;;6.75;1.25;;;21.80;99.90;;;;;;4124506;28;20059;-86
2022/07/09 09:26:49;;;;;;;6.38;1.10;;;21.90;99.90;;;;;;4134457;28;20038;-85
2022/07/09 09:29:01;;;;;;;5.20;1.75;;;21.90;99.90;;;;;;4133098;28;20049;-86
2022/07/09 09:31:01;;;;;;;3.17;0.90;;;21.90;99.60;;;;;;4133035;28;20492;-85
2022/07/09 09:33:03;;;;;;;3.47;1.00;;;21.90;99.40;;;;;;4131301;28;20069;-85
2022/07/09 09:35:05;;;;;;;3.45;0.80;;;21.90;99.20;;;;;;4132338;28;20077;-86
2022/07/09 09:37:07;;;;;;;3.85;0.90;;;21.90;99.30;;;;;;4132174;28;20076;-86
2022/07/09 09:39:12;;;;;;;6.05;1.63;;;21.80;98.70;;;;;;4120829;28;20129;-85
2022/07/09 09:41:24;;;;;;;4.35;0.82;;;21.90;98.70;;;;;;4111332;28;20109;-86
2022/07/09 09:43:26;;;;;;;4.15;1.25;;;22.00;98.20;;;;;;4127973;28;20047;-85
2022/07/09 09:45:27;;;;;;;4.40;1.42;;;22.20;98.20;;;;;;4126799;28;20500;-86
2022/07/09 09:47:28;;;;;;;7.57;1.38;;;22.30;98.10;;;;;;4123589;28;20482;-86
2022/07/09 09:49:30;;;;;;;5.07;1.40;;;22.40;98.10;;;;;;4130112;28;20042;-85
2022/07/09 09:51:33;;;;;;;5.95;1.30;;;22.40;97.80;;;;;;4132316;28;20057;-85
2022/07/09 09:53:34;;;;;;;5.60;1.98;;;22.50;97.80;;;;;;4113446;28;20047;-86
2022/07/09 09:55:37;;;;;;;4.45;1.13;;;22.50;97.50;;;;;;4132017;28;20096;-86
2022/07/09 09:57:39;;;;;;;3.97;1.20;;;22.60;97.00;;;;;;4131786;28;20602;-86
2022/07/09 09:59:41;;;;;;;9.52;1.17;;;22.70;97.00;;;;;;4114712;28;20047;-85
2022/07/09 10:01:44;;;;;;;3.42;1.30;;;22.60;97.00;;;;;;4134061;28;20077;-85
2022/07/09 10:03:46;;;;;;;3.70;1.10;;;22.60;96.90;;;;;;4134519;28;20051;-85
2022/07/09 10:05:47;;;;;;;6.10;0.90;;;22.60;96.80;;;;;;4135623;28;20096;-85
2022/07/09 10:07:48;;;;;;;4.00;1.20;;;22.80;96.80;;;;;;4116454;28;20110;-84
2022/07/09 10:09:59;;;;;;;6.28;0.95;;;22.90;96.50;;;;;;4134824;28;20042;-85
2022/07/09 10:12:00;;;;;;;9.13;1.08;;;22.80;96.60;;;;;;4134071;28;20066;-85
2022/07/09 10:14:01;;;;;;;3.28;0.90;;;22.70;97.00;;;;;;4137010;28;20105;-85
2022/07/09 10:16:02;;;;;;;6.38;1.17;;;22.50;97.20;;;;;;4137529;28;20038;-85
2022/07/09 10:18:12;;;;;;;4.03;1.20;;;22.20;97.40;;;;;;4134135;28;20050;-85
2022/07/09 10:20:13;;;;;;;4.78;1.27;;;21.90;97.50;;;;;;4119815;28;20055;-84
2022/07/09 10:22:14;;;;;;;3.38;0.98;;;21.80;98.30;;;;;;4119781;28;20411;-85
2022/07/09 10:24:24;;;;;;;5.85;1.00;;;21.60;98.40;;;;;;4116721;28;20137;-86
2022/07/09 10:26:48;;;;;;;9.77;2.08;;;21.40;98.30;;;;;;4134085;28;20073;-85
2022/07/09 10:28:49;;;;;;;4.40;1.20;;;21.30;98.00;;;;;;4131819;28;20084;-86
2022/07/09 10:30:50;;;;;;;10.98;1.33;;;21.20;98.30;;;;;;4134912;28;20053;-86
2022/07/09 10:33:06;;;;;;;5.32;0.98;;;21.20;98.10;;;;;;4117742;28;20046;-85